createdAt,value
2019-02-08T00:00:41.842Z,100261.70
2019-02-08T00:03:45.554Z,100266.50
2019-02-08T00:06:49.193Z,100258.55
2019-02-08T00:09:53.797Z,100266.59
2019-02-08T00:12:57.504Z,100269.25
2019-02-08T00:16:01.146Z,100282.02
2019-02-08T00:19:04.731Z,100269.74
2019-02-08T00:22:08.699Z,100286.95
2019-02-08T00:25:15.356Z,100280.70
2019-02-08T00:28:19.171Z,100276.92
2019-02-08T00:31:22.813Z,100281.66
2019-02-08T00:34:26.423Z,100276.36
2019-02-08T00:37:32.120Z,100283.55
2019-02-08T00:40:35.744Z,100282.22
2019-02-08T00:43:39.496Z,100282.22
2019-02-08T00:46:43.102Z,100285.23
2019-02-08T00:49:46.700Z,100293.77
2019-02-08T00:52:50.530Z,100293.77
2019-02-08T00:55:54.289Z,100294.14
2019-02-08T00:58:58.018Z,100287.62
2019-02-08T01:02:02.183Z,100287.16
2019-02-08T01:05:06.742Z,100288.08
2019-02-08T01:08:10.370Z,100283.18
2019-02-08T01:11:15.342Z,100286.66
2019-02-08T01:14:20.020Z,100290.73
2019-02-08T01:17:23.603Z,100289.80
2019-02-08T01:20:28.636Z,100295.66
2019-02-08T01:23:32.332Z,100285.06
2019-02-08T01:26:36.083Z,100289.80
2019-02-08T01:29:39.761Z,100283.74
2019-02-08T01:32:51.101Z,100286.75
2019-02-08T01:35:58.642Z,100281.95
2019-02-08T01:39:02.348Z,100289.04
2019-02-08T01:42:05.961Z,100291.33
2019-02-08T01:45:10.460Z,100291.88
2019-02-08T01:48:14.097Z,100289.63
2019-02-08T01:51:17.990Z,100297.58
2019-02-08T01:54:21.557Z,100299.37
2019-02-08T01:57:25.202Z,100306.45
2019-02-08T02:00:39.525Z,100296.81
2019-02-08T02:03:43.291Z,100294.53
2019-02-08T02:06:46.986Z,100299.46
2019-02-08T02:09:50.572Z,100305.22
2019-02-08T02:12:54.172Z,100310.42
2019-02-08T02:15:57.787Z,100312.70
2019-02-08T02:19:01.373Z,100317.04
2019-02-08T02:22:05.089Z,100314.03
2019-02-08T02:25:10.118Z,100313.66
2019-02-08T02:28:13.738Z,100314.03
2019-02-08T02:31:17.347Z,100311.37
2019-02-08T02:34:20.973Z,100316.67
2019-02-08T02:37:25.658Z,100319.32
2019-02-08T02:40:29.234Z,100325.58
2019-02-08T02:43:32.879Z,100331.60
2019-02-08T02:46:36.423Z,100330.88
2019-02-08T02:49:40.174Z,100336.08
2019-02-08T02:52:43.783Z,100332.66
2019-02-08T02:55:47.385Z,100336.53
2019-02-08T02:58:50.991Z,100340.51
2019-02-08T03:01:54.675Z,100341.47
2019-02-08T03:04:58.249Z,100346.00
2019-02-08T03:08:02.921Z,100354.80
2019-02-08T03:11:06.487Z,100355.63
2019-02-08T03:14:10.162Z,100356.39
2019-02-08T03:17:13.866Z,100362.25
2019-02-08T03:20:18.042Z,100364.06
2019-02-08T03:23:21.691Z,100363.57
2019-02-08T03:26:26.390Z,100357.91
2019-02-08T03:29:29.956Z,100356.59
2019-02-08T03:32:33.622Z,100348.64
2019-02-08T03:35:37.315Z,100349.60
2019-02-08T03:38:41.049Z,100355.73
2019-02-08T03:41:44.606Z,100360.09
2019-02-08T03:44:48.226Z,100355.73
2019-02-08T03:47:51.830Z,100361.16
2019-02-08T03:50:55.424Z,100364.62
2019-02-08T03:53:59.140Z,100367.77
2019-02-08T03:57:02.748Z,100364.16
2019-02-08T04:00:09.397Z,100361.16
2019-02-08T04:03:12.978Z,100350.56
2019-02-08T04:06:18.643Z,100355.86
2019-02-08T04:09:22.308Z,100356.22
2019-02-08T04:12:26.041Z,100354.89
2019-02-08T04:15:29.628Z,100357.18
2019-02-08T04:18:33.173Z,100357.55
2019-02-08T04:21:36.789Z,100369.92
2019-02-08T04:24:40.384Z,100364.99
2019-02-08T04:27:44.054Z,100354.04
2019-02-08T04:30:47.678Z,100363.30
2019-02-08T04:33:51.396Z,100368.23
2019-02-08T04:36:54.975Z,100367.38
2019-02-08T04:39:58.649Z,100369.55
2019-02-08T04:43:02.292Z,100367.38
2019-02-08T04:46:05.986Z,100378.92
2019-02-08T04:49:09.608Z,100379.78
2019-02-08T04:52:13.204Z,100377.96
2019-02-08T04:55:16.909Z,100392.92
2019-02-08T04:58:20.596Z,100386.86
2019-02-08T05:01:24.261Z,100389.52
2019-02-08T05:04:27.829Z,100391.79
2019-02-08T05:07:31.519Z,100390.83
2019-02-08T05:10:35.302Z,100388.19
2019-02-08T05:13:39.058Z,100390.28
2019-02-08T05:16:42.628Z,100381.56
2019-02-08T05:19:46.212Z,100377.96
2019-02-08T05:22:49.841Z,100382.89
2019-02-08T05:25:53.491Z,100390.28
2019-02-08T05:28:59.101Z,100389.41
2019-02-08T05:32:02.715Z,100397.82
2019-02-08T05:35:06.368Z,100397.82
2019-02-08T05:38:09.977Z,100392.52
2019-02-08T05:41:13.727Z,100397.36
2019-02-08T05:44:17.321Z,100399.91
2019-02-08T05:47:20.939Z,100404.44
2019-02-08T05:50:25.519Z,100408.81
2019-02-08T05:53:29.183Z,100404.44
2019-02-08T05:56:32.789Z,100419.50
2019-02-08T05:59:36.358Z,100426.11
2019-02-08T06:02:39.926Z,100430.91
2019-02-08T06:05:43.676Z,100427.53
2019-02-08T06:08:47.309Z,100426.21
2019-02-08T06:11:50.967Z,100431.01
2019-02-08T06:14:54.708Z,100426.58
2019-02-08T06:17:58.269Z,100424.89
2019-02-08T06:21:01.915Z,100419.59
2019-02-08T06:24:05.599Z,100417.31
2019-02-08T06:27:09.204Z,100419.59
2019-02-08T06:30:21.094Z,100420.82
2019-02-08T06:33:24.713Z,100429.23
2019-02-08T06:36:28.304Z,100434.61
2019-02-08T06:39:31.946Z,100432.73
2019-02-08T06:42:35.568Z,100433.29
2019-02-08T06:45:39.311Z,100431.11
2019-02-08T06:48:42.840Z,100428.45
2019-02-08T06:51:46.539Z,100429.23
2019-02-08T06:54:50.237Z,100428.45
2019-02-08T06:58:00.183Z,100429.78
2019-02-08T07:01:22.927Z,100431.01
2019-02-08T07:04:45.530Z,100431.60
2019-02-08T07:08:08.328Z,100435.48
2019-02-08T07:11:18.229Z,100448.72
2019-02-08T07:14:40.545Z,100451.36
2019-02-08T07:18:02.104Z,100453.61
2019-02-08T07:21:24.039Z,100455.33
2019-02-08T07:24:35.517Z,100452.28
2019-02-08T07:27:48.529Z,100454.93
2019-02-08T07:31:10.026Z,100457.58
2019-02-08T07:34:27.615Z,100456.26
2019-02-08T07:37:38.286Z,100450.41
2019-02-08T07:40:53.553Z,100447.39
2019-02-08T07:44:16.184Z,100448.72
2019-02-08T07:47:29.926Z,100452.28
2019-02-08T07:50:44.708Z,100455.89
2019-02-08T07:54:10.472Z,100460.23
2019-02-08T07:57:38.795Z,100461.55
2019-02-08T08:00:57.676Z,100460.63
2019-02-08T08:04:34.887Z,100454.01
2019-02-08T08:07:50.226Z,100440.19
2019-02-08T08:11:03.031Z,100438.30
2019-02-08T08:14:15.975Z,100445.29
2019-02-08T08:17:40.804Z,100442.81
2019-02-08T08:21:09.770Z,100444.55
2019-02-08T08:24:24.339Z,100446.14
2019-02-08T08:27:52.547Z,100450.48
2019-02-08T08:31:01.601Z,100450.75
2019-02-08T08:34:11.950Z,100453.03
2019-02-08T08:38:09.516Z,100459.92
2019-02-08T08:41:51.742Z,100444.89
2019-02-08T08:45:30.542Z,100458.13
2019-02-08T08:48:57.316Z,100459.34
2019-02-08T08:52:30.228Z,100460.98
2019-02-08T08:56:14.834Z,100468.37
2019-02-08T08:59:55.756Z,100463.15
2019-02-08T09:03:39.070Z,100457.92
2019-02-08T09:07:36.161Z,100454.91
2019-02-08T09:11:19.984Z,100454.30
2019-02-08T09:15:26.162Z,100457.81
2019-02-08T09:19:00.061Z,100448.07
2019-02-08T09:22:51.016Z,100443.30
2019-02-08T09:26:36.267Z,100439.80
2019-02-08T09:30:11.967Z,100439.67
2019-02-08T09:34:21.589Z,100437.42
2019-02-08T09:37:36.612Z,100428.50
2019-02-08T09:41:08.380Z,100430.19
2019-02-08T09:44:48.526Z,100431.22
2019-02-08T09:48:16.904Z,100432.61
2019-02-08T09:51:38.895Z,100441.43
2019-02-08T09:55:21.441Z,100435.27
2019-02-08T09:58:55.125Z,100436.39
2019-02-08T10:02:40.068Z,100438.12
2019-02-08T10:06:27.255Z,100433.20
2019-02-08T10:10:13.819Z,100435.56
2019-02-08T10:13:53.649Z,100444.02
2019-02-08T10:17:56.960Z,100442.69
2019-02-08T10:21:43.781Z,100438.71
2019-02-08T10:25:31.243Z,100432.28
2019-02-08T10:29:28.030Z,100431.78
2019-02-08T10:33:09.252Z,100429.03
2019-02-08T10:36:38.388Z,100430.92
2019-02-08T10:40:20.600Z,100417.47
2019-02-08T10:44:01.575Z,100416.87
2019-02-08T10:48:10.843Z,100416.67
2019-02-08T10:52:04.139Z,100407.30
2019-02-08T10:55:59.031Z,100399.23
2019-02-08T10:59:28.056Z,100392.97
2019-02-08T11:03:18.581Z,100394.09
2019-02-08T11:06:59.643Z,100387.83
2019-02-08T11:10:43.478Z,100379.31
2019-02-08T11:14:27.599Z,100378.74
2019-02-08T11:18:24.666Z,100363.66
2019-02-08T11:21:29.436Z,100367.27
2019-02-08T11:24:33.122Z,100368.86
2019-02-08T11:27:36.823Z,100367.90
2019-02-08T11:30:40.507Z,100362.59
2019-02-08T11:33:46.101Z,100362.42
2019-02-08T11:36:49.890Z,100355.33
2019-02-08T11:40:00.654Z,100348.01
2019-02-08T11:43:05.590Z,100345.28
2019-02-08T11:46:09.293Z,100341.20
2019-02-08T11:49:12.994Z,100345.47
2019-02-08T11:52:16.703Z,100334.97
2019-02-08T11:55:20.416Z,100336.45
2019-02-08T11:58:24.103Z,100338.14
2019-02-08T12:01:29.478Z,100327.32
2019-02-08T12:04:33.245Z,100331.77
2019-02-08T12:07:37.968Z,100339.63
2019-02-08T12:10:41.614Z,100332.06
2019-02-08T12:13:45.326Z,100331.34
2019-02-08T12:16:50.101Z,100322.72
2019-02-08T12:19:53.824Z,100316.45
2019-02-08T12:22:57.457Z,100309.70
2019-02-08T12:26:01.167Z,100303.33
2019-02-08T12:29:05.774Z,100305.41
2019-02-08T12:32:09.384Z,100300.83
2019-02-08T12:35:13.079Z,100298.56
2019-02-08T12:38:17.568Z,100300.51
2019-02-08T12:41:21.294Z,100293.41
2019-02-08T12:44:25.042Z,100299.83
2019-02-08T12:47:28.731Z,100301.16
2019-02-08T12:50:32.469Z,100289.22
2019-02-08T12:53:37.196Z,100297.89
2019-02-08T12:56:45.613Z,100289.47
2019-02-08T12:59:46.731Z,100284.77
2019-02-08T13:02:51.351Z,100287.92
2019-02-08T13:05:55.082Z,100284.20
2019-02-08T13:08:58.771Z,100274.80
2019-02-08T13:12:02.459Z,100268.63
2019-02-08T13:15:08.483Z,100269.39
2019-02-08T13:18:12.392Z,100270.72
2019-02-08T13:21:17.286Z,100268.06
2019-02-08T13:24:21.104Z,100268.78
2019-02-08T13:27:25.957Z,100265.77
2019-02-08T13:30:29.882Z,100264.44
2019-02-08T13:33:33.536Z,100259.13
2019-02-08T13:36:37.372Z,100260.81
2019-02-08T13:39:41.035Z,100258.16
2019-02-08T13:42:44.635Z,100258.16
2019-02-08T13:45:48.348Z,100254.18
2019-02-08T13:48:52.066Z,100251.53
2019-02-08T13:51:55.790Z,100255.15
2019-02-08T13:54:59.516Z,100249.48
2019-02-08T13:58:03.162Z,100243.20
2019-02-08T14:01:06.933Z,100237.90
2019-02-08T14:04:11.875Z,100235.89
2019-02-08T14:07:15.827Z,100235.39
2019-02-08T14:10:19.954Z,100237.93
2019-02-08T14:13:24.289Z,100240.47
2019-02-08T14:16:29.154Z,100233.84
2019-02-08T14:19:32.827Z,100236.85
2019-02-08T14:22:36.521Z,100231.94
2019-02-08T14:25:40.251Z,100238.57
2019-02-08T14:28:46.111Z,100237.46
2019-02-08T14:31:49.861Z,100237.46
2019-02-08T14:34:53.582Z,100234.42
2019-02-08T14:37:57.700Z,100224.41
2019-02-08T14:41:01.466Z,100224.05
2019-02-08T14:44:05.440Z,100227.64
2019-02-08T14:47:09.009Z,100216.31
2019-02-08T14:50:15.647Z,100229.58
2019-02-08T14:53:19.337Z,100215.56
2019-02-08T14:56:23.036Z,100217.86
2019-02-08T14:59:26.720Z,100211.80
2019-02-08T15:02:30.453Z,100212.02
2019-02-08T15:05:34.111Z,100212.02
2019-02-08T15:08:37.827Z,100214.92
2019-02-08T15:11:41.526Z,100208.00
2019-02-08T15:17:50.386Z,100194.02
2019-02-08T15:20:53.865Z,100193.52
2019-02-08T15:23:58.609Z,100195.81
2019-02-08T15:27:02.522Z,100187.14
2019-02-08T15:30:07.322Z,100190.72
2019-02-08T15:33:10.948Z,100187.71
2019-02-08T15:36:14.651Z,100193.48
2019-02-08T15:39:18.388Z,100188.79
2019-02-08T15:42:22.176Z,100188.90
2019-02-08T15:48:37.973Z,100179.28
2019-02-08T15:51:41.473Z,100190.44
2019-02-08T15:54:45.150Z,100187.79
2019-02-08T15:57:49.707Z,100181.73
2019-02-08T16:00:53.330Z,100190.77
2019-02-08T16:03:56.971Z,100194.49
2019-02-08T16:07:00.634Z,100188.83
2019-02-08T16:10:04.329Z,100187.50
2019-02-08T16:13:08.870Z,100182.41
2019-02-08T16:16:12.475Z,100175.03
2019-02-08T16:19:16.047Z,100172.02
2019-02-08T16:22:20.616Z,100166.72
2019-02-08T16:25:25.858Z,100172.98
2019-02-08T16:28:29.523Z,100171.27
2019-02-08T16:31:33.119Z,100171.27
2019-02-08T16:34:36.625Z,100168.73
2019-02-08T16:37:40.136Z,100164.39
2019-02-08T16:40:43.623Z,100167.91
2019-02-08T16:43:47.227Z,100165.36
2019-02-08T16:46:50.665Z,100158.23
2019-02-08T16:49:54.150Z,100165.36
2019-02-08T16:52:57.736Z,100167.15
2019-02-08T16:56:01.348Z,100159.19
2019-02-08T16:59:05.871Z,100161.45
2019-02-08T17:02:09.399Z,100169.02
2019-02-08T17:05:14.185Z,100171.67
2019-02-08T17:08:17.801Z,100171.81
2019-02-08T17:11:21.426Z,100169.63
2019-02-08T17:14:25.003Z,100165.64
2019-02-08T17:17:28.520Z,100173.96
2019-02-08T17:20:36.855Z,100167.44
2019-02-08T17:23:40.533Z,100165.64
2019-02-08T17:26:45.273Z,100159.02
2019-02-08T17:29:48.897Z,100158.66
2019-02-08T17:32:52.384Z,100162.64
2019-02-08T17:35:55.891Z,100152.96
2019-02-08T17:39:00.384Z,100155.04
2019-02-08T17:42:03.907Z,100151.64
2019-02-08T17:45:10.203Z,100151.64
2019-02-08T17:48:14.794Z,100148.63
2019-02-08T17:51:19.517Z,100142.57
2019-02-08T17:54:25.679Z,100144.29
2019-02-08T17:57:28.356Z,100143.43
2019-02-08T18:01:01.415Z,100151.85
2019-02-08T18:04:05.340Z,100140.42
2019-02-08T18:07:08.966Z,100129.81
2019-02-08T18:10:15.699Z,100124.52
2019-02-08T18:13:19.351Z,100119.67
2019-02-08T18:16:22.966Z,100121.97
2019-02-08T18:19:26.478Z,100113.66
2019-02-08T18:22:30.092Z,100106.17
2019-02-08T18:25:33.679Z,100101.72
2019-02-08T18:28:37.145Z,100102.19
2019-02-08T18:31:40.670Z,100106.64
2019-02-08T18:34:44.166Z,100105.70
2019-02-08T18:37:47.685Z,100102.08
2019-02-08T18:40:52.213Z,100104.27
2019-02-08T18:43:55.736Z,100100.55
2019-02-08T18:46:59.209Z,100099.58
2019-02-08T18:50:02.699Z,100095.95
2019-02-08T18:53:08.243Z,100094.63
2019-02-08T18:56:12.788Z,100096.34
2019-02-08T18:59:16.277Z,100093.08
2019-02-08T19:02:19.778Z,100097.56
2019-02-08T19:05:23.284Z,100092.27
2019-02-08T19:08:27.795Z,100077.28
2019-02-08T19:11:32.536Z,100077.78
2019-02-08T19:14:36.129Z,100086.09
2019-02-08T19:17:39.589Z,100076.46
2019-02-08T19:20:43.130Z,100072.84
2019-02-08T19:23:46.740Z,100061.27
2019-02-08T19:26:51.374Z,100058.26
2019-02-08T19:29:54.974Z,100055.61
2019-02-08T19:32:58.432Z,100040.55
2019-02-08T19:36:02.006Z,100035.72
2019-02-08T19:39:07.921Z,100032.09
2019-02-08T19:42:11.446Z,100022.63
2019-02-08T19:45:16.155Z,100026.22
2019-02-08T19:48:20.804Z,100025.28
2019-02-08T19:51:24.598Z,100019.98
2019-02-08T19:54:28.126Z,100020.84
2019-02-08T19:57:31.611Z,100023.37
2019-02-08T20:00:36.431Z,100018.54
2019-02-08T20:03:40.029Z,100018.43
2019-02-08T20:06:43.556Z,100004.95
2019-02-08T20:09:47.030Z,99996.02
2019-02-08T20:12:50.538Z,99991.69
2019-02-08T20:15:54.036Z,99985.64
2019-02-08T20:18:57.657Z,99983.59
2019-02-08T20:22:02.268Z,99985.75
2019-02-08T20:25:09.393Z,99983.09
2019-02-08T20:28:13.007Z,99978.30
2019-02-08T20:31:16.558Z,99976.00
2019-02-08T20:34:20.228Z,99965.50
2019-02-08T20:37:23.856Z,99958.77
2019-02-08T20:40:29.728Z,99952.14
2019-02-08T20:43:33.332Z,99949.13
2019-02-08T20:46:36.846Z,99948.73
2019-02-08T20:49:40.320Z,99940.78
2019-02-08T20:52:45.037Z,99925.37
2019-02-08T20:55:48.569Z,99930.17
2019-02-08T20:58:52.063Z,99924.87
2019-02-08T21:01:55.559Z,99924.52
2019-02-08T21:04:59.063Z,99919.22
2019-02-08T21:08:02.500Z,99908.96
2019-02-08T21:11:06.070Z,99911.03
2019-02-08T21:14:09.569Z,99904.41
2019-02-08T21:17:13.138Z,99898.12
2019-02-08T21:20:16.770Z,99903.82
2019-02-08T21:23:22.817Z,99899.23
2019-02-08T21:26:26.649Z,99885.50
2019-02-08T21:29:30.217Z,99875.83
2019-02-08T21:32:34.681Z,99867.53
2019-02-08T21:35:38.186Z,99859.22
2019-02-08T21:38:41.673Z,99858.01
2019-02-08T21:41:45.168Z,99853.17
2019-02-08T21:44:51.128Z,99848.25
2019-02-08T21:47:55.729Z,99841.23
2019-02-08T21:50:59.462Z,99827.50
2019-02-08T21:54:03.113Z,99817.13
2019-02-08T21:57:06.581Z,99814.33
2019-02-08T22:00:17.216Z,99823.60
2019-02-08T22:03:20.638Z,99816.00
2019-02-08T22:06:24.235Z,99821.41
2019-02-08T22:09:27.772Z,99819.00
2019-02-08T22:12:31.258Z,99812.02
2019-02-08T22:15:35.667Z,99813.92
2019-02-08T22:18:39.173Z,99808.88
2019-02-08T22:21:42.660Z,99809.83
2019-02-08T22:24:46.186Z,99802.84
2019-02-08T22:27:49.633Z,99798.02
2019-02-08T22:30:55.156Z,99800.42
2019-02-08T22:33:58.575Z,99801.39
2019-02-08T22:37:02.113Z,99797.17
2019-02-08T22:40:07.758Z,99790.91
2019-02-08T22:43:11.445Z,99788.37
2019-02-08T22:46:18.119Z,99774.02
2019-02-08T22:49:21.656Z,99766.07
2019-02-08T22:52:25.182Z,99764.75
2019-02-08T22:55:30.275Z,99758.70
2019-02-08T22:58:34.092Z,99760.03
2019-02-08T23:01:40.069Z,99756.32
2019-02-08T23:04:44.702Z,99744.75
2019-02-08T23:07:48.181Z,99748.38
2019-02-08T23:10:51.679Z,99746.55
2019-02-08T23:13:55.189Z,99729.08
2019-02-08T23:16:58.696Z,99730.98
2019-02-08T23:20:02.185Z,99725.69
2019-02-08T23:23:07.752Z,99721.36
2019-02-08T23:26:11.257Z,99713.06
2019-02-08T23:29:15.772Z,99712.70
2019-02-08T23:32:19.250Z,99706.44
2019-02-08T23:35:22.779Z,99699.45
2019-02-08T23:38:26.261Z,99696.07
2019-02-08T23:41:29.697Z,99686.45
2019-02-08T23:44:33.161Z,99678.11
2019-02-08T23:47:36.787Z,99680.41
2019-02-08T23:50:40.225Z,99669.81
2019-02-08T23:53:43.773Z,99661.86
2019-02-08T23:56:47.269Z,99664.86
2019-02-08T23:59:50.777Z,99655.86
